sensor_id;sensor_type;location;lat;lon;timestamp;P1;durP1;ratioP1;P2;durP2;ratioP2
25359;SDS011;13311;51.386;0.016;2023-05-16T00:01:45;9.77;;;3.28;;
25359;SDS011;13311;51.386;0.016;2023-05-16T00:06:46;10.88;;;3.50;;
25359;SDS011;13311;51.386;0.016;2023-05-16T00:11:46;5.75;;;3.45;;
25359;SDS011;13311;51.386;0.016;2023-05-16T00:16:47;7.53;;;4.25;;
25359;SDS011;13311;51.386;0.016;2023-05-16T00:21:48;10.18;;;4.50;;
25359;SDS011;13311;51.386;0.016;2023-05-16T00:26:48;16.08;;;4.30;;
25359;SDS011;13311;51.386;0.016;2023-05-16T00:31:49;7.57;;;4.20;;
25359;SDS011;13311;51.386;0.016;2023-05-16T00:36:50;8.43;;;4.20;;
25359;SDS011;13311;51.386;0.016;2023-05-16T00:41:51;9.77;;;4.35;;
25359;SDS011;13311;51.386;0.016;2023-05-16T00:46:52;8.45;;;3.95;;
25359;SDS011;13311;51.386;0.016;2023-05-16T00:51:53;8.30;;;3.90;;
25359;SDS011;13311;51.386;0.016;2023-05-16T00:56:56;9.02;;;4.55;;
25359;SDS011;13311;51.386;0.016;2023-05-16T01:01:57;11.15;;;4.32;;
25359;SDS011;13311;51.386;0.016;2023-05-16T01:06:57;10.82;;;4.80;;
25359;SDS011;13311;51.386;0.016;2023-05-16T01:18:07;12.35;;;4.47;;
25359;SDS011;13311;51.386;0.016;2023-05-16T01:28:49;9.43;;;4.72;;
25359;SDS011;13311;51.386;0.016;2023-05-16T01:33:51;9.25;;;4.20;;
25359;SDS011;13311;51.386;0.016;2023-05-16T01:44:01;9.85;;;3.88;;
25359;SDS011;13311;51.386;0.016;2023-05-16T01:54:44;10.80;;;4.32;;
25359;SDS011;13311;51.386;0.016;2023-05-16T01:59:47;6.88;;;4.00;;
25359;SDS011;13311;51.386;0.016;2023-05-16T02:04:48;7.40;;;4.22;;
25359;SDS011;13311;51.386;0.016;2023-05-16T02:09:50;9.43;;;3.55;;
25359;SDS011;13311;51.386;0.016;2023-05-16T02:14:50;7.40;;;4.00;;
25359;SDS011;13311;51.386;0.016;2023-05-16T02:19:51;7.97;;;3.80;;
25359;SDS011;13311;51.386;0.016;2023-05-16T02:24:52;13.18;;;4.47;;
25359;SDS011;13311;51.386;0.016;2023-05-16T02:29:53;8.18;;;3.10;;
25359;SDS011;13311;51.386;0.016;2023-05-16T02:34:53;12.18;;;4.28;;
25359;SDS011;13311;51.386;0.016;2023-05-16T02:39:54;6.35;;;3.00;;
25359;SDS011;13311;51.386;0.016;2023-05-16T02:44:55;11.88;;;3.15;;
25359;SDS011;13311;51.386;0.016;2023-05-16T02:49:55;6.35;;;3.08;;
25359;SDS011;13311;51.386;0.016;2023-05-16T02:54:56;7.28;;;2.97;;
25359;SDS011;13311;51.386;0.016;2023-05-16T02:59:57;8.98;;;3.50;;
25359;SDS011;13311;51.386;0.016;2023-05-16T03:04:58;7.75;;;3.58;;
25359;SDS011;13311;51.386;0.016;2023-05-16T03:09:58;10.93;;;3.85;;
25359;SDS011;13311;51.386;0.016;2023-05-16T03:14:59;8.77;;;3.45;;
25359;SDS011;13311;51.386;0.016;2023-05-16T03:20:00;7.00;;;3.40;;
25359;SDS011;13311;51.386;0.016;2023-05-16T03:25:02;9.20;;;3.10;;
25359;SDS011;13311;51.386;0.016;2023-05-16T03:30:04;12.88;;;4.05;;
25359;SDS011;13311;51.386;0.016;2023-05-16T03:35:05;7.57;;;3.50;;
25359;SDS011;13311;51.386;0.016;2023-05-16T03:40:07;6.80;;;3.10;;
25359;SDS011;13311;51.386;0.016;2023-05-16T03:45:08;5.15;;;3.03;;
25359;SDS011;13311;51.386;0.016;2023-05-16T03:50:10;5.65;;;3.33;;
25359;SDS011;13311;51.386;0.016;2023-05-16T03:55:10;8.63;;;3.53;;
25359;SDS011;13311;51.386;0.016;2023-05-16T04:00:13;6.13;;;3.38;;
25359;SDS011;13311;51.386;0.016;2023-05-16T04:05:14;5.75;;;3.00;;
25359;SDS011;13311;51.386;0.016;2023-05-16T04:10:15;8.88;;;3.55;;
25359;SDS011;13311;51.386;0.016;2023-05-16T04:15:16;12.18;;;3.80;;
25359;SDS011;13311;51.386;0.016;2023-05-16T04:20:16;7.95;;;3.35;;
25359;SDS011;13311;51.386;0.016;2023-05-16T04:25:17;6.35;;;3.35;;
25359;SDS011;13311;51.386;0.016;2023-05-16T04:30:18;10.70;;;3.63;;
25359;SDS011;13311;51.386;0.016;2023-05-16T04:35:18;7.53;;;3.20;;
25359;SDS011;13311;51.386;0.016;2023-05-16T04:40:21;8.15;;;3.33;;
25359;SDS011;13311;51.386;0.016;2023-05-16T04:45:23;9.52;;;3.55;;
25359;SDS011;13311;51.386;0.016;2023-05-16T04:50:24;9.25;;;3.85;;
25359;SDS011;13311;51.386;0.016;2023-05-16T04:55:25;7.68;;;4.00;;
25359;SDS011;13311;51.386;0.016;2023-05-16T05:00:25;11.30;;;3.50;;
25359;SDS011;13311;51.386;0.016;2023-05-16T05:05:26;11.25;;;4.07;;
25359;SDS011;13311;51.386;0.016;2023-05-16T05:10:27;7.95;;;4.30;;
25359;SDS011;13311;51.386;0.016;2023-05-16T05:15:27;12.52;;;3.85;;
25359;SDS011;13311;51.386;0.016;2023-05-16T05:20:28;11.93;;;4.10;;
25359;SDS011;13311;51.386;0.016;2023-05-16T05:25:29;10.48;;;3.67;;
25359;SDS011;13311;51.386;0.016;2023-05-16T05:30:30;9.30;;;3.53;;
25359;SDS011;13311;51.386;0.016;2023-05-16T05:35:30;6.47;;;2.90;;
25359;SDS011;13311;51.386;0.016;2023-05-16T05:40:31;5.35;;;3.00;;
25359;SDS011;13311;51.386;0.016;2023-05-16T05:45:32;6.57;;;2.65;;
25359;SDS011;13311;51.386;0.016;2023-05-16T05:50:32;5.68;;;2.47;;
25359;SDS011;13311;51.386;0.016;2023-05-16T05:55:33;8.10;;;2.60;;
25359;SDS011;13311;51.386;0.016;2023-05-16T06:00:34;8.07;;;2.50;;
25359;SDS011;13311;51.386;0.016;2023-05-16T06:05:35;7.13;;;2.53;;
25359;SDS011;13311;51.386;0.016;2023-05-16T06:10:36;7.35;;;2.47;;
25359;SDS011;13311;51.386;0.016;2023-05-16T06:15:36;6.70;;;2.75;;
25359;SDS011;13311;51.386;0.016;2023-05-16T06:20:37;8.23;;;2.78;;
25359;SDS011;13311;51.386;0.016;2023-05-16T06:25:38;5.63;;;2.50;;
25359;SDS011;13311;51.386;0.016;2023-05-16T06:30:38;7.53;;;1.98;;
25359;SDS011;13311;51.386;0.016;2023-05-16T06:35:39;5.47;;;2.33;;
25359;SDS011;13311;51.386;0.016;2023-05-16T06:40:40;5.85;;;2.10;;
25359;SDS011;13311;51.386;0.016;2023-05-16T06:45:41;9.85;;;3.35;;
25359;SDS011;13311;51.386;0.016;2023-05-16T06:50:49;9.30;;;3.20;;
25359;SDS011;13311;51.386;0.016;2023-05-16T06:55:51;6.22;;;2.55;;
25359;SDS011;13311;51.386;0.016;2023-05-16T07:00:52;5.22;;;2.10;;
25359;SDS011;13311;51.386;0.016;2023-05-16T07:05:52;10.60;;;3.35;;
25359;SDS011;13311;51.386;0.016;2023-05-16T07:10:53;7.93;;;2.97;;
25359;SDS011;13311;51.386;0.016;2023-05-16T07:15:54;12.05;;;3.08;;
25359;SDS011;13311;51.386;0.016;2023-05-16T07:20:54;11.48;;;2.72;;
25359;SDS011;13311;51.386;0.016;2023-05-16T07:25:55;9.40;;;2.80;;
25359;SDS011;13311;51.386;0.016;2023-05-16T07:30:56;8.75;;;2.70;;
25359;SDS011;13311;51.386;0.016;2023-05-16T07:35:57;9.48;;;2.50;;
25359;SDS011;13311;51.386;0.016;2023-05-16T07:40:58;8.00;;;2.38;;
25359;SDS011;13311;51.386;0.016;2023-05-16T07:46:00;6.45;;;2.00;;
25359;SDS011;13311;51.386;0.016;2023-05-16T07:51:02;5.80;;;1.80;;
25359;SDS011;13311;51.386;0.016;2023-05-16T07:56:02;4.95;;;1.77;;
25359;SDS011;13311;51.386;0.016;2023-05-16T08:01:04;5.82;;;2.13;;
25359;SDS011;13311;51.386;0.016;2023-05-16T08:06:05;3.60;;;1.55;;
25359;SDS011;13311;51.386;0.016;2023-05-16T08:11:05;9.25;;;2.15;;
25359;SDS011;13311;51.386;0.016;2023-05-16T08:16:06;8.15;;;2.75;;
25359;SDS011;13311;51.386;0.016;2023-05-16T08:21:07;5.63;;;2.00;;
25359;SDS011;13311;51.386;0.016;2023-05-16T08:26:08;8.98;;;2.47;;
25359;SDS011;13311;51.386;0.016;2023-05-16T08:31:09;6.63;;;2.38;;
25359;SDS011;13311;51.386;0.016;2023-05-16T08:36:09;8.07;;;1.90;;
25359;SDS011;13311;51.386;0.016;2023-05-16T08:41:10;7.82;;;2.35;;
25359;SDS011;13311;51.386;0.016;2023-05-16T08:46:11;10.40;;;2.72;;
25359;SDS011;13311;51.386;0.016;2023-05-16T08:51:12;6.07;;;2.33;;
25359;SDS011;13311;51.386;0.016;2023-05-16T08:56:18;4.57;;;1.92;;
25359;SDS011;13311;51.386;0.016;2023-05-16T09:01:21;8.73;;;2.30;;
25359;SDS011;13311;51.386;0.016;2023-05-16T09:06:22;7.03;;;2.03;;
25359;SDS011;13311;51.386;0.016;2023-05-16T09:11:23;6.75;;;1.95;;
25359;SDS011;13311;51.386;0.016;2023-05-16T09:16:24;4.82;;;1.48;;
25359;SDS011;13311;51.386;0.016;2023-05-16T09:21:27;7.38;;;2.17;;
25359;SDS011;13311;51.386;0.016;2023-05-16T09:26:31;5.90;;;1.95;;
25359;SDS011;13311;51.386;0.016;2023-05-16T09:31:37;7.85;;;1.80;;
25359;SDS011;13311;51.386;0.016;2023-05-16T09:36:38;6.93;;;1.80;;
25359;SDS011;13311;51.386;0.016;2023-05-16T09:41:39;8.02;;;2.22;;
25359;SDS011;13311;51.386;0.016;2023-05-16T09:46:40;4.22;;;1.63;;
25359;SDS011;13311;51.386;0.016;2023-05-16T09:51:41;8.52;;;2.05;;
25359;SDS011;13311;51.386;0.016;2023-05-16T09:56:48;4.53;;;1.63;;
25359;SDS011;13311;51.386;0.016;2023-05-16T10:01:49;4.70;;;1.77;;
25359;SDS011;13311;51.386;0.016;2023-05-16T10:06:54;5.53;;;1.20;;
25359;SDS011;13311;51.386;0.016;2023-05-16T10:11:56;7.55;;;1.70;;
25359;SDS011;13311;51.386;0.016;2023-05-16T10:17:02;4.90;;;1.40;;
25359;SDS011;13311;51.386;0.016;2023-05-16T10:22:06;4.00;;;1.77;;
25359;SDS011;13311;51.386;0.016;2023-05-16T10:27:07;3.20;;;1.52;;
25359;SDS011;13311;51.386;0.016;2023-05-16T10:32:09;3.22;;;1.17;;
25359;SDS011;13311;51.386;0.016;2023-05-16T10:37:11;3.53;;;1.20;;
25359;SDS011;13311;51.386;0.016;2023-05-16T10:42:13;3.05;;;1.40;;
25359;SDS011;13311;51.386;0.016;2023-05-16T10:47:19;3.28;;;1.30;;
25359;SDS011;13311;51.386;0.016;2023-05-16T10:52:21;3.13;;;1.38;;
25359;SDS011;13311;51.386;0.016;2023-05-16T10:57:33;7.93;;;1.85;;
25359;SDS011;13311;51.386;0.016;2023-05-16T11:02:39;4.95;;;1.70;;
25359;SDS011;13311;51.386;0.016;2023-05-16T11:07:41;1.98;;;0.98;;
25359;SDS011;13311;51.386;0.016;2023-05-16T11:12:43;5.38;;;1.25;;
25359;SDS011;13311;51.386;0.016;2023-05-16T11:17:48;2.65;;;0.95;;
25359;SDS011;13311;51.386;0.016;2023-05-16T11:22:50;2.90;;;0.95;;
25359;SDS011;13311;51.386;0.016;2023-05-16T11:27:51;4.82;;;1.20;;
25359;SDS011;13311;51.386;0.016;2023-05-16T11:32:51;2.42;;;1.00;;
25359;SDS011;13311;51.386;0.016;2023-05-16T11:37:56;4.07;;;1.45;;
25359;SDS011;13311;51.386;0.016;2023-05-16T11:42:59;6.43;;;1.58;;
25359;SDS011;13311;51.386;0.016;2023-05-16T11:48:03;2.75;;;0.90;;
25359;SDS011;13311;51.386;0.016;2023-05-16T11:53:04;2.67;;;1.38;;
25359;SDS011;13311;51.386;0.016;2023-05-16T11:58:05;2.85;;;1.20;;
25359;SDS011;13311;51.386;0.016;2023-05-16T12:03:06;4.30;;;1.55;;
25359;SDS011;13311;51.386;0.016;2023-05-16T12:08:06;8.38;;;1.27;;
25359;SDS011;13311;51.386;0.016;2023-05-16T12:13:09;3.53;;;1.10;;
25359;SDS011;13311;51.386;0.016;2023-05-16T12:18:10;3.65;;;1.35;;
25359;SDS011;13311;51.386;0.016;2023-05-16T12:23:12;2.13;;;1.10;;
25359;SDS011;13311;51.386;0.016;2023-05-16T12:28:13;4.43;;;1.55;;
25359;SDS011;13311;51.386;0.016;2023-05-16T12:33:15;4.35;;;1.50;;
25359;SDS011;13311;51.386;0.016;2023-05-16T12:38:16;4.03;;;1.10;;
25359;SDS011;13311;51.386;0.016;2023-05-16T12:43:19;4.47;;;1.45;;
25359;SDS011;13311;51.386;0.016;2023-05-16T12:48:22;7.05;;;1.65;;
25359;SDS011;13311;51.386;0.016;2023-05-16T12:53:34;3.72;;;1.02;;
25359;SDS011;13311;51.386;0.016;2023-05-16T12:58:49;2.13;;;0.88;;
25359;SDS011;13311;51.386;0.016;2023-05-16T13:03:51;4.60;;;1.38;;
25359;SDS011;13311;51.386;0.016;2023-05-16T13:08:52;4.78;;;1.40;;
25359;SDS011;13311;51.386;0.016;2023-05-16T13:13:54;4.75;;;1.52;;
25359;SDS011;13311;51.386;0.016;2023-05-16T13:18:54;3.22;;;1.20;;
25359;SDS011;13311;51.386;0.016;2023-05-16T13:23:55;3.78;;;1.50;;
25359;SDS011;13311;51.386;0.016;2023-05-16T13:28:56;8.75;;;2.03;;
25359;SDS011;13311;51.386;0.016;2023-05-16T13:33:56;2.90;;;1.27;;
25359;SDS011;13311;51.386;0.016;2023-05-16T13:38:57;4.28;;;1.48;;
25359;SDS011;13311;51.386;0.016;2023-05-16T13:43:58;3.08;;;1.27;;
25359;SDS011;13311;51.386;0.016;2023-05-16T13:48:59;3.67;;;1.02;;
25359;SDS011;13311;51.386;0.016;2023-05-16T13:54:00;3.33;;;1.75;;
25359;SDS011;13311;51.386;0.016;2023-05-16T13:59:00;5.93;;;1.60;;
25359;SDS011;13311;51.386;0.016;2023-05-16T14:04:01;5.82;;;1.88;;
25359;SDS011;13311;51.386;0.016;2023-05-16T14:09:02;3.33;;;1.52;;
25359;SDS011;13311;51.386;0.016;2023-05-16T14:14:03;2.38;;;0.82;;
25359;SDS011;13311;51.386;0.016;2023-05-16T14:19:04;3.50;;;1.60;;
25359;SDS011;13311;51.386;0.016;2023-05-16T14:24:05;5.18;;;1.55;;
25359;SDS011;13311;51.386;0.016;2023-05-16T14:29:07;3.33;;;1.48;;
25359;SDS011;13311;51.386;0.016;2023-05-16T14:34:07;3.70;;;1.70;;
25359;SDS011;13311;51.386;0.016;2023-05-16T14:39:08;3.95;;;1.85;;
25359;SDS011;13311;51.386;0.016;2023-05-16T14:44:09;4.40;;;1.73;;
25359;SDS011;13311;51.386;0.016;2023-05-16T14:49:10;3.60;;;1.85;;
25359;SDS011;13311;51.386;0.016;2023-05-16T14:54:11;3.88;;;2.20;;
25359;SDS011;13311;51.386;0.016;2023-05-16T14:59:11;5.60;;;2.78;;
25359;SDS011;13311;51.386;0.016;2023-05-16T15:04:13;3.30;;;2.20;;
25359;SDS011;13311;51.386;0.016;2023-05-16T15:09:13;2.90;;;1.85;;
25359;SDS011;13311;51.386;0.016;2023-05-16T15:14:14;3.20;;;2.03;;
25359;SDS011;13311;51.386;0.016;2023-05-16T15:19:15;6.10;;;2.35;;
25359;SDS011;13311;51.386;0.016;2023-05-16T15:24:16;4.43;;;2.83;;
25359;SDS011;13311;51.386;0.016;2023-05-16T15:29:16;6.40;;;2.85;;
25359;SDS011;13311;51.386;0.016;2023-05-16T15:34:19;3.45;;;2.35;;
25359;SDS011;13311;51.386;0.016;2023-05-16T15:39:19;6.65;;;3.17;;
25359;SDS011;13311;51.386;0.016;2023-05-16T15:44:20;8.75;;;3.15;;
25359;SDS011;13311;51.386;0.016;2023-05-16T15:49:21;5.50;;;3.53;;
25359;SDS011;13311;51.386;0.016;2023-05-16T15:54:21;4.07;;;2.88;;
25359;SDS011;13311;51.386;0.016;2023-05-16T15:59:22;7.20;;;3.80;;
25359;SDS011;13311;51.386;0.016;2023-05-16T16:04:23;8.82;;;4.00;;
25359;SDS011;13311;51.386;0.016;2023-05-16T16:09:24;6.90;;;4.20;;
25359;SDS011;13311;51.386;0.016;2023-05-16T16:14:25;9.30;;;4.57;;
25359;SDS011;13311;51.386;0.016;2023-05-16T16:19:25;7.22;;;5.00;;
25359;SDS011;13311;51.386;0.016;2023-05-16T16:24:26;8.75;;;4.45;;
25359;SDS011;13311;51.386;0.016;2023-05-16T16:29:27;10.35;;;5.43;;
25359;SDS011;13311;51.386;0.016;2023-05-16T16:34:28;7.70;;;4.72;;
25359;SDS011;13311;51.386;0.016;2023-05-16T16:39:28;12.60;;;5.22;;
25359;SDS011;13311;51.386;0.016;2023-05-16T16:44:29;10.00;;;5.40;;
25359;SDS011;13311;51.386;0.016;2023-05-16T16:49:30;8.48;;;5.05;;
25359;SDS011;13311;51.386;0.016;2023-05-16T16:54:30;13.27;;;6.35;;
25359;SDS011;13311;51.386;0.016;2023-05-16T16:59:31;8.32;;;4.75;;
25359;SDS011;13311;51.386;0.016;2023-05-16T17:04:32;13.90;;;5.93;;
25359;SDS011;13311;51.386;0.016;2023-05-16T17:09:36;10.40;;;5.18;;
25359;SDS011;13311;51.386;0.016;2023-05-16T17:14:40;9.27;;;4.72;;
25359;SDS011;13311;51.386;0.016;2023-05-16T17:19:41;13.57;;;6.22;;
25359;SDS011;13311;51.386;0.016;2023-05-16T17:24:44;8.75;;;4.93;;
25359;SDS011;13311;51.386;0.016;2023-05-16T17:29:45;12.18;;;5.78;;
25359;SDS011;13311;51.386;0.016;2023-05-16T17:34:46;9.35;;;6.10;;
25359;SDS011;13311;51.386;0.016;2023-05-16T17:39:47;10.50;;;5.60;;
25359;SDS011;13311;51.386;0.016;2023-05-16T17:44:47;8.27;;;4.65;;
25359;SDS011;13311;51.386;0.016;2023-05-16T17:49:48;9.88;;;4.95;;
25359;SDS011;13311;51.386;0.016;2023-05-16T17:54:49;8.90;;;5.03;;
25359;SDS011;13311;51.386;0.016;2023-05-16T17:59:50;9.68;;;5.80;;
25359;SDS011;13311;51.386;0.016;2023-05-16T18:04:50;10.88;;;5.82;;
25359;SDS011;13311;51.386;0.016;2023-05-16T18:09:51;14.80;;;6.10;;
25359;SDS011;13311;51.386;0.016;2023-05-16T18:14:53;11.02;;;5.55;;
25359;SDS011;13311;51.386;0.016;2023-05-16T18:19:53;9.85;;;4.57;;
25359;SDS011;13311;51.386;0.016;2023-05-16T18:24:54;10.07;;;5.15;;
25359;SDS011;13311;51.386;0.016;2023-05-16T18:29:55;9.52;;;5.00;;
25359;SDS011;13311;51.386;0.016;2023-05-16T18:34:56;11.63;;;5.05;;
25359;SDS011;13311;51.386;0.016;2023-05-16T18:39:57;10.43;;;5.10;;
25359;SDS011;13311;51.386;0.016;2023-05-16T18:44:57;11.00;;;5.28;;
25359;SDS011;13311;51.386;0.016;2023-05-16T18:49:58;17.23;;;5.93;;
25359;SDS011;13311;51.386;0.016;2023-05-16T18:54:59;10.52;;;4.85;;
25359;SDS011;13311;51.386;0.016;2023-05-16T18:59:59;15.30;;;4.75;;
25359;SDS011;13311;51.386;0.016;2023-05-16T19:05:00;11.65;;;5.97;;
25359;SDS011;13311;51.386;0.016;2023-05-16T19:10:01;11.65;;;5.60;;
25359;SDS011;13311;51.386;0.016;2023-05-16T19:15:01;13.27;;;5.75;;
25359;SDS011;13311;51.386;0.016;2023-05-16T19:20:03;9.35;;;4.85;;
25359;SDS011;13311;51.386;0.016;2023-05-16T19:25:04;12.57;;;5.75;;
25359;SDS011;13311;51.386;0.016;2023-05-16T19:30:06;13.82;;;5.70;;
25359;SDS011;13311;51.386;0.016;2023-05-16T19:35:07;11.70;;;5.82;;
25359;SDS011;13311;51.386;0.016;2023-05-16T19:40:09;13.82;;;5.85;;
25359;SDS011;13311;51.386;0.016;2023-05-16T19:45:10;10.80;;;5.30;;
25359;SDS011;13311;51.386;0.016;2023-05-16T19:50:11;13.02;;;5.45;;
25359;SDS011;13311;51.386;0.016;2023-05-16T19:55:11;15.38;;;5.47;;
25359;SDS011;13311;51.386;0.016;2023-05-16T20:00:12;12.40;;;4.63;;
25359;SDS011;13311;51.386;0.016;2023-05-16T20:05:14;11.38;;;4.95;;
25359;SDS011;13311;51.386;0.016;2023-05-16T20:10:18;12.15;;;5.97;;
25359;SDS011;13311;51.386;0.016;2023-05-16T20:15:19;13.57;;;5.40;;
25359;SDS011;13311;51.386;0.016;2023-05-16T20:20:20;12.52;;;6.00;;
25359;SDS011;13311;51.386;0.016;2023-05-16T20:25:20;12.00;;;5.80;;
25359;SDS011;13311;51.386;0.016;2023-05-16T20:30:21;11.57;;;5.15;;
25359;SDS011;13311;51.386;0.016;2023-05-16T20:35:22;14.82;;;5.03;;
25359;SDS011;13311;51.386;0.016;2023-05-16T20:40:23;12.18;;;6.00;;
25359;SDS011;13311;51.386;0.016;2023-05-16T20:45:24;13.70;;;5.57;;
25359;SDS011;13311;51.386;0.016;2023-05-16T20:50:27;12.02;;;5.30;;
25359;SDS011;13311;51.386;0.016;2023-05-16T20:55:27;14.15;;;6.53;;
25359;SDS011;13311;51.386;0.016;2023-05-16T21:00:28;13.27;;;5.95;;
25359;SDS011;13311;51.386;0.016;2023-05-16T21:05:29;11.98;;;6.25;;
25359;SDS011;13311;51.386;0.016;2023-05-16T21:10:32;15.80;;;6.00;;
25359;SDS011;13311;51.386;0.016;2023-05-16T21:15:33;12.07;;;6.47;;
25359;SDS011;13311;51.386;0.016;2023-05-16T21:20:34;10.50;;;5.75;;
25359;SDS011;13311;51.386;0.016;2023-05-16T21:25:35;11.27;;;6.85;;
25359;SDS011;13311;51.386;0.016;2023-05-16T21:30:36;16.02;;;6.43;;
25359;SDS011;13311;51.386;0.016;2023-05-16T21:35:37;13.55;;;7.28;;
25359;SDS011;13311;51.386;0.016;2023-05-16T21:40:37;14.27;;;8.00;;
25359;SDS011;13311;51.386;0.016;2023-05-16T21:45:38;14.38;;;7.43;;
25359;SDS011;13311;51.386;0.016;2023-05-16T21:50:39;14.23;;;7.97;;
25359;SDS011;13311;51.386;0.016;2023-05-16T21:55:41;14.85;;;6.90;;
25359;SDS011;13311;51.386;0.016;2023-05-16T22:00:42;19.85;;;7.55;;
25359;SDS011;13311;51.386;0.016;2023-05-16T22:05:43;25.80;;;7.63;;
25359;SDS011;13311;51.386;0.016;2023-05-16T22:10:47;15.38;;;8.07;;
25359;SDS011;13311;51.386;0.016;2023-05-16T22:15:47;20.35;;;9.00;;
25359;SDS011;13311;51.386;0.016;2023-05-16T22:20:48;18.98;;;9.77;;
25359;SDS011;13311;51.386;0.016;2023-05-16T22:25:49;25.77;;;13.15;;
25359;SDS011;13311;51.386;0.016;2023-05-16T22:30:49;39.25;;;19.58;;
25359;SDS011;13311;51.386;0.016;2023-05-16T22:35:50;36.10;;;18.77;;
25359;SDS011;13311;51.386;0.016;2023-05-16T22:40:51;41.22;;;19.88;;
25359;SDS011;13311;51.386;0.016;2023-05-16T22:45:52;42.22;;;21.33;;
25359;SDS011;13311;51.386;0.016;2023-05-16T22:50:53;45.42;;;21.75;;
25359;SDS011;13311;51.386;0.016;2023-05-16T22:55:54;38.90;;;19.20;;
25359;SDS011;13311;51.386;0.016;2023-05-16T23:00:54;32.83;;;16.75;;
25359;SDS011;13311;51.386;0.016;2023-05-16T23:05:56;37.25;;;17.42;;
25359;SDS011;13311;51.386;0.016;2023-05-16T23:10:57;35.75;;;17.80;;
25359;SDS011;13311;51.386;0.016;2023-05-16T23:15:58;42.08;;;17.70;;
25359;SDS011;13311;51.386;0.016;2023-05-16T23:20:59;38.30;;;17.63;;
25359;SDS011;13311;51.386;0.016;2023-05-16T23:25:59;38.83;;;20.38;;
25359;SDS011;13311;51.386;0.016;2023-05-16T23:31:00;44.83;;;20.05;;
25359;SDS011;13311;51.386;0.016;2023-05-16T23:36:01;42.80;;;20.60;;
25359;SDS011;13311;51.386;0.016;2023-05-16T23:41:01;48.38;;;21.83;;
25359;SDS011;13311;51.386;0.016;2023-05-16T23:46:02;53.35;;;25.80;;
25359;SDS011;13311;51.386;0.016;2023-05-16T23:51:03;58.30;;;27.38;;
25359;SDS011;13311;51.386;0.016;2023-05-16T23:56:06;50.13;;;24.08;;
